Time;durP1;ratioP1;P1;durP2;ratioP2;P2;SDS_P1;SDS_P2;PMS_P1;PMS_P2;Temp;Humidity;BMP_temperature;BMP_pressure;BME280_temperature;BME280_humidity;BME280_pressure;Samples;Min_cycle;Max_cycle;Signal;HPM_P1;HPM_P2
2022/07/17 00:01:32;;;;;;;;;;;25.50;57.60;;;;;;5022359;28;87181;-42
2022/07/17 00:03:58;;;;;;;;;;;25.50;57.60;;;;;;5022425;28;86923;-42
2022/07/17 00:06:24;;;;;;;;;;;25.50;57.70;;;;;;5021494;28;88200;-42
2022/07/17 00:08:49;;;;;;;;;;;25.50;57.70;;;;;;5022158;28;87066;-42
2022/07/17 00:11:15;;;;;;;;;;;25.40;57.60;;;;;;5022492;28;87395;-41
2022/07/17 00:13:40;;;;;;;;;;;25.40;57.60;;;;;;5025047;28;87732;-42
2022/07/17 00:16:06;;;;;;;;;;;25.40;57.60;;;;;;5022325;28;87557;-44
2022/07/17 00:18:32;;;;;;;;;;;25.40;57.60;;;;;;5021681;28;89769;-42
2022/07/17 00:20:57;;;;;;;;;;;25.40;57.60;;;;;;5022090;28;87072;-42
2022/07/17 00:23:23;;;;;;;;;;;25.40;57.60;;;;;;5022731;28;87565;-42
2022/07/17 00:25:48;;;;;;;;;;;25.40;57.70;;;;;;5021894;28;87909;-42
2022/07/17 00:28:14;;;;;;;;;;;25.40;57.70;;;;;;5022160;28;87124;-42
2022/07/17 00:30:40;;;;;;;;;;;25.30;57.60;;;;;;5021254;28;87900;-42
2022/07/17 00:33:05;;;;;;;;;;;25.30;57.60;;;;;;5021890;28;88149;-42
2022/07/17 00:35:31;;;;;;;;;;;25.30;57.70;;;;;;5024760;28;87114;-41
2022/07/17 00:37:56;;;;;;;;;;;25.30;57.70;;;;;;5021516;28;89313;-42
2022/07/17 00:40:23;;;;;;;;;;;25.30;57.80;;;;;;5021742;28;87392;-42
2022/07/17 00:42:49;;;;;;;;;;;25.20;57.70;;;;;;5022066;28;87430;-42
2022/07/17 00:45:15;;;;;;;;;;;25.20;57.70;;;;;;5014719;28;90546;-42
2022/07/17 00:47:56;;;;;;;;;;;25.20;57.70;;;;;;5005015;28;86241;-42
2022/07/17 00:50:23;;;;;;;;;;;25.20;57.70;;;;;;5005094;28;88439;-42
2022/07/17 00:52:48;;;;;;;;;;;25.20;57.70;;;;;;5004853;28;88236;-42
2022/07/17 00:55:14;;;;;;;;;;;25.20;57.70;;;;;;5007569;28;88046;-42
2022/07/17 00:57:40;;;;;;;;;;;25.10;57.70;;;;;;5004410;28;89529;-42
2022/07/17 01:00:09;;;;;;;;;;;25.20;57.80;;;;;;5005337;28;87038;-42
2022/07/17 01:02:35;;;;;;;;;;;25.10;57.70;;;;;;5005105;28;89438;-42
2022/07/17 01:05:01;;;;;;;;;;;25.10;57.70;;;;;;5004876;28;88090;-42
2022/07/17 01:07:27;;;;;;;;;;;25.10;57.80;;;;;;5005043;28;87061;-40
2022/07/17 01:09:52;;;;;;;;;;;25.10;57.80;;;;;;5005168;28;87514;-42
2022/07/17 01:12:18;;;;;;;;;;;25.10;57.80;;;;;;5005235;28;87290;-42
2022/07/17 01:14:43;;;;;;;;;;;25.10;57.80;;;;;;5004943;28;87029;-42
2022/07/17 01:17:09;;;;;;;;;;;25.00;57.80;;;;;;5007781;28;87000;-42
2022/07/17 01:19:35;;;;;;;;;;;25.00;57.80;;;;;;5004177;28;87991;-42
2022/07/17 01:22:01;;;;;;;;;;;25.00;57.80;;;;;;5004849;28;88366;-42
2022/07/17 01:24:26;;;;;;;;;;;25.00;57.80;;;;;;5004600;28;88024;-42
2022/07/17 01:26:52;;;;;;;;;;;25.00;57.80;;;;;;5004854;28;87123;-42
2022/07/17 01:29:17;;;;;;;;;;;25.00;57.90;;;;;;5004677;28;87502;-42
2022/07/17 01:31:43;;;;;;;;;;;24.90;57.80;;;;;;5004405;28;88034;-43
2022/07/17 01:34:09;;;;;;;;;;;24.90;57.90;;;;;;5004889;28;87106;-42
2022/07/17 01:36:35;;;;;;;;;;;24.90;57.90;;;;;;5005334;28;87464;-43
2022/07/17 01:39:01;;;;;;;;;;;24.90;57.90;;;;;;5007285;28;87945;-42
2022/07/17 01:41:27;;;;;;;;;;;24.90;57.90;;;;;;5004451;28;87267;-43
2022/07/17 01:43:53;;;;;;;;;;;24.80;57.90;;;;;;5003525;28;88579;-42
2022/07/17 01:46:18;;;;;;;;;;;24.80;58.00;;;;;;5018130;28;87212;-42
2022/07/17 01:48:44;;;;;;;;;;;24.80;58.00;;;;;;5024611;28;87517;-42
2022/07/17 01:51:09;;;;;;;;;;;24.80;58.00;;;;;;5024111;28;87955;-42
2022/07/17 01:53:35;;;;;;;;;;;24.80;58.00;;;;;;5024412;28;87006;-42
2022/07/17 01:56:00;;;;;;;;;;;24.80;58.00;;;;;;5024315;28;87410;-42
2022/07/17 01:58:26;;;;;;;;;;;24.70;58.00;;;;;;5023058;28;87971;-43
2022/07/17 02:00:52;;;;;;;;;;;24.70;58.00;;;;;;5027500;28;86366;-42
2022/07/17 02:03:17;;;;;;;;;;;24.70;58.00;;;;;;5024193;28;88044;-42
2022/07/17 02:05:43;;;;;;;;;;;24.70;58.00;;;;;;5024272;28;87130;-43
2022/07/17 02:08:08;;;;;;;;;;;24.70;58.00;;;;;;5023729;28;87915;-42
2022/07/17 02:10:34;;;;;;;;;;;24.70;58.10;;;;;;5023773;28;88136;-42
2022/07/17 02:12:59;;;;;;;;;;;24.60;58.10;;;;;;5023790;28;87166;-42
2022/07/17 02:15:25;;;;;;;;;;;24.60;58.10;;;;;;5024116;28;87445;-42
2022/07/17 02:17:51;;;;;;;;;;;24.60;58.10;;;;;;5023703;28;88006;-42
2022/07/17 02:20:17;;;;;;;;;;;24.60;58.10;;;;;;5023619;28;87203;-42
2022/07/17 02:22:42;;;;;;;;;;;24.60;58.10;;;;;;5026749;28;87325;-42
2022/07/17 02:25:09;;;;;;;;;;;24.60;58.10;;;;;;5024012;28;86232;-42
2022/07/17 02:27:34;;;;;;;;;;;24.60;58.20;;;;;;5023371;28;88622;-42
2022/07/17 02:30:04;;;;;;;;;;;24.50;58.20;;;;;;5023435;28;88194;-42
2022/07/17 02:32:30;;;;;;;;;;;24.50;58.20;;;;;;5023216;28;88022;-42
2022/07/17 02:34:55;;;;;;;;;;;24.50;58.20;;;;;;5023419;28;90288;-42
2022/07/17 02:37:21;;;;;;;;;;;24.50;58.20;;;;;;5023364;28;87982;-42
2022/07/17 02:39:52;;;;;;;;;;;24.50;58.20;;;;;;5023587;28;87202;-43
2022/07/17 02:42:19;;;;;;;;;;;24.50;58.30;;;;;;5023562;28;87329;-42
2022/07/17 02:44:45;;;;;;;;;;;24.50;58.30;;;;;;5025704;28;88090;-42
2022/07/17 02:47:10;;;;;;;;;;;24.50;58.30;;;;;;5023721;28;87581;-42
2022/07/17 02:49:36;;;;;;;;;;;24.40;58.30;;;;;;5023685;28;87502;-42
2022/07/17 02:52:01;;;;;;;;;;;24.40;58.30;;;;;;5023533;28;87150;-42
2022/07/17 02:54:27;;;;;;;;;;;24.40;58.30;;;;;;5023467;28;87612;-42
2022/07/17 02:56:52;;;;;;;;;;;24.40;58.30;;;;;;5022298;28;89087;-42
2022/07/17 02:59:18;;;;;;;;;;;24.40;58.30;;;;;;5023369;28;87111;-43
2022/07/17 03:01:43;;;;;;;;;;;24.40;58.30;;;;;;5023570;28;87492;-42
2022/07/17 03:04:09;;;;;;;;;;;24.40;58.30;;;;;;5025629;28;89296;-42
2022/07/17 03:06:34;;;;;;;;;;;24.30;58.30;;;;;;5023018;28;88843;-42
2022/07/17 03:09:00;;;;;;;;;;;24.30;58.30;;;;;;5022933;28;88133;-42
2022/07/17 03:11:25;;;;;;;;;;;24.30;58.40;;;;;;5022815;28;87258;-42
2022/07/17 03:13:51;;;;;;;;;;;24.30;58.40;;;;;;5023402;28;86749;-44
2022/07/17 03:16:16;;;;;;;;;;;24.30;58.50;;;;;;5022967;28;87960;-42
2022/07/17 03:18:42;;;;;;;;;;;24.30;58.40;;;;;;5023158;28;87114;-43
2022/07/17 03:21:07;;;;;;;;;;;24.20;58.50;;;;;;5022515;28;87986;-42
2022/07/17 03:23:33;;;;;;;;;;;24.20;58.40;;;;;;5022591;28;88080;-42
2022/07/17 03:25:58;;;;;;;;;;;24.20;58.40;;;;;;5025861;28;86916;-42
2022/07/17 03:28:24;;;;;;;;;;;24.20;58.50;;;;;;5022200;28;88625;-42
2022/07/17 03:30:50;;;;;;;;;;;24.20;58.50;;;;;;5022982;28;87107;-42
2022/07/17 03:33:15;;;;;;;;;;;24.20;58.50;;;;;;5022688;28;88120;-44
2022/07/17 03:35:41;;;;;;;;;;;24.20;58.50;;;;;;5022624;28;88029;-42
2022/07/17 03:38:06;;;;;;;;;;;24.20;58.50;;;;;;5023335;28;86412;-42
2022/07/17 03:40:32;;;;;;;;;;;24.10;58.50;;;;;;5022827;28;86865;-42
2022/07/17 03:42:57;;;;;;;;;;;24.10;58.60;;;;;;5022316;28;87920;-42
2022/07/17 03:45:23;;;;;;;;;;;24.10;58.60;;;;;;5021165;28;88051;-42
2022/07/17 03:47:48;;;;;;;;;;;24.10;58.60;;;;;;5025120;28;89262;-42
2022/07/17 03:50:15;;;;;;;;;;;24.10;58.60;;;;;;5022644;28;87125;-42
2022/07/17 03:52:40;;;;;;;;;;;24.10;58.70;;;;;;5022611;28;87546;-42
2022/07/17 03:55:06;;;;;;;;;;;24.10;58.60;;;;;;5022149;28;87271;-42
2022/07/17 03:57:32;;;;;;;;;;;24.00;59.20;;;;;;5022369;28;87102;-42
2022/07/17 03:59:57;;;;;;;;;;;24.00;58.60;;;;;;5022391;28;87311;-42
2022/07/17 04:02:23;;;;;;;;;;;24.00;58.60;;;;;;5022754;28;87516;-42
2022/07/17 04:04:48;;;;;;;;;;;24.00;58.60;;;;;;5022392;28;87128;-42
2022/07/17 04:07:30;;;;;;;;;;;24.00;58.70;;;;;;5022292;28;89207;-42
2022/07/17 04:09:59;;;;;;;;;;;24.00;58.70;;;;;;5024216;28;90552;-41
2022/07/17 04:12:25;;;;;;;;;;;24.00;58.80;;;;;;5022184;28;88316;-42
2022/07/17 04:14:50;;;;;;;;;;;24.00;59.40;;;;;;5022103;28;87908;-42
2022/07/17 04:17:16;;;;;;;;;;;24.00;58.80;;;;;;5022190;28;87045;-42
2022/07/17 04:19:41;;;;;;;;;;;23.90;58.70;;;;;;5022257;28;87659;-42
2022/07/17 04:22:07;;;;;;;;;;;23.90;58.70;;;;;;5023481;28;87942;-42
2022/07/17 04:24:32;;;;;;;;;;;23.90;58.70;;;;;;5025810;28;87139;-43
2022/07/17 04:26:58;;;;;;;;;;;23.90;58.70;;;;;;5026136;28;87454;-43
2022/07/17 04:29:23;;;;;;;;;;;23.90;58.80;;;;;;5025425;28;88180;-42
2022/07/17 04:31:51;;;;;;;;;;;23.90;58.80;;;;;;5028663;28;87177;-42
2022/07/17 04:34:16;;;;;;;;;;;23.90;58.80;;;;;;5024740;28;89155;-42
2022/07/17 04:36:42;;;;;;;;;;;23.80;58.80;;;;;;5025697;28;87131;-42
2022/07/17 04:39:08;;;;;;;;;;;23.90;58.90;;;;;;5025495;28;87821;-42
2022/07/17 04:41:33;;;;;;;;;;;23.80;58.80;;;;;;5024767;28;89509;-42
2022/07/17 04:43:59;;;;;;;;;;;23.80;58.90;;;;;;5025649;28;86916;-42
2022/07/17 04:46:24;;;;;;;;;;;23.80;58.90;;;;;;5024556;28;87153;-43
2022/07/17 04:48:50;;;;;;;;;;;23.90;58.90;;;;;;5025144;28;87936;-42
2022/07/17 04:51:15;;;;;;;;;;;23.80;58.90;;;;;;5025990;28;86186;-42
2022/07/17 04:53:41;;;;;;;;;;;23.80;58.90;;;;;;5028093;28;86983;-42
2022/07/17 04:56:07;;;;;;;;;;;23.80;58.90;;;;;;5025304;28;87084;-42
2022/07/17 04:58:32;;;;;;;;;;;23.70;58.90;;;;;;5024755;28;87985;-42
2022/07/17 05:00:58;;;;;;;;;;;23.70;58.90;;;;;;5024974;28;88187;-42
2022/07/17 05:03:23;;;;;;;;;;;23.70;58.90;;;;;;5025376;28;87117;-42
2022/07/17 05:05:48;;;;;;;;;;;23.70;59.00;;;;;;5025402;28;87659;-42
2022/07/17 05:08:14;;;;;;;;;;;23.70;59.00;;;;;;5024804;28;88051;-42
2022/07/17 05:10:40;;;;;;;;;;;23.70;59.00;;;;;;5025171;28;87082;-42
2022/07/17 05:13:05;;;;;;;;;;;23.70;59.00;;;;;;5027672;28;87517;-42
2022/07/17 05:15:31;;;;;;;;;;;23.70;59.00;;;;;;5025414;28;86356;-43
2022/07/17 05:17:56;;;;;;;;;;;23.70;59.00;;;;;;5025047;28;87117;-42
2022/07/17 05:20:22;;;;;;;;;;;23.70;59.00;;;;;;5024435;28;88141;-42
2022/07/17 05:22:47;;;;;;;;;;;23.70;59.00;;;;;;5024230;28;88144;-42
2022/07/17 05:25:13;;;;;;;;;;;23.70;59.00;;;;;;5024720;28;88458;-42
2022/07/17 05:27:38;;;;;;;;;;;23.70;59.00;;;;;;5024122;28;88613;-42
2022/07/17 05:30:04;;;;;;;;;;;23.70;59.60;;;;;;5024866;28;87003;-42
2022/07/17 05:32:29;;;;;;;;;;;23.70;59.00;;;;;;5024139;28;89249;-42
2022/07/17 05:34:55;;;;;;;;;;;23.70;59.00;;;;;;5026539;28;88066;-42
2022/07/17 05:37:20;;;;;;;;;;;23.70;58.90;;;;;;5024778;28;87453;-41
2022/07/17 05:39:46;;;;;;;;;;;23.70;58.90;;;;;;5024788;28;87398;-42
2022/07/17 05:42:11;;;;;;;;;;;23.70;59.00;;;;;;5024613;28;87616;-41
2022/07/17 05:44:37;;;;;;;;;;;23.70;59.00;;;;;;5024093;28;87711;-42
2022/07/17 05:47:02;;;;;;;;;;;23.70;59.00;;;;;;5023466;28;89130;-43
2022/07/17 05:49:28;;;;;;;;;;;23.70;59.00;;;;;;5024096;28;87136;-42
2022/07/17 05:51:53;;;;;;;;;;;23.70;58.90;;;;;;5024281;28;87694;-42
2022/07/17 05:54:19;;;;;;;;;;;23.70;58.90;;;;;;5023779;28;88359;-41
2022/07/17 05:56:44;;;;;;;;;;;23.70;58.90;;;;;;5026975;28;87033;-42
2022/07/17 05:59:10;;;;;;;;;;;23.70;58.80;;;;;;5023780;28;88167;-42
2022/07/17 06:01:35;;;;;;;;;;;23.70;58.70;;;;;;5023808;28;87159;-41
2022/07/17 06:04:01;;;;;;;;;;;23.70;58.60;;;;;;5024415;28;87235;-42
2022/07/17 06:06:26;;;;;;;;;;;23.70;58.40;;;;;;5024068;28;87726;-42
2022/07/17 06:08:52;;;;;;;;;;;23.70;58.40;;;;;;5023972;28;87107;-42
2022/07/17 06:11:17;;;;;;;;;;;23.70;58.40;;;;;;5023488;28;87902;-42
2022/07/17 06:13:43;;;;;;;;;;;23.70;58.30;;;;;;5023380;28;87088;-42
2022/07/17 06:16:08;;;;;;;;;;;23.70;58.20;;;;;;5023912;28;87023;-41
2022/07/17 06:18:34;;;;;;;;;;;23.70;58.30;;;;;;5026328;28;87459;-41
2022/07/17 06:20:59;;;;;;;;;;;23.70;58.30;;;;;;5023429;28;87384;-43
2022/07/17 06:23:25;;;;;;;;;;;23.70;58.30;;;;;;5023596;28;88958;-41
2022/07/17 06:25:50;;;;;;;;;;;23.70;57.90;;;;;;5023144;28;87742;-42
2022/07/17 06:28:16;;;;;;;;;;;23.70;58.00;;;;;;5024063;28;86408;-42
2022/07/17 06:30:41;;;;;;;;;;;23.70;58.00;;;;;;5023453;28;87071;-42
2022/07/17 06:33:07;;;;;;;;;;;23.70;58.00;;;;;;5023248;28;88126;-41
2022/07/17 06:35:33;;;;;;;;;;;23.70;57.90;;;;;;5022935;28;88128;-42
2022/07/17 06:37:59;;;;;;;;;;;23.70;57.90;;;;;;5023376;28;89699;-42
2022/07/17 06:40:25;;;;;;;;;;;23.70;57.80;;;;;;5026074;28;88370;-42
2022/07/17 06:42:50;;;;;;;;;;;23.70;57.60;;;;;;5023456;28;87279;-42
2022/07/17 06:45:16;;;;;;;;;;;23.60;57.60;;;;;;5021980;28;87944;-42
2022/07/17 06:47:41;;;;;;;;;;;23.70;57.90;;;;;;5023237;28;86992;-42
2022/07/17 06:50:08;;;;;;;;;;;23.60;57.80;;;;;;5023311;28;87355;-42
2022/07/17 06:52:33;;;;;;;;;;;23.70;57.60;;;;;;5023031;28;88664;-42
2022/07/17 06:54:59;;;;;;;;;;;23.70;57.90;;;;;;5023411;28;87352;-42
2022/07/17 06:57:25;;;;;;;;;;;23.70;57.40;;;;;;5022777;28;89108;-42
2022/07/17 06:59:50;;;;;;;;;;;23.70;57.30;;;;;;5021903;28;88888;-42
2022/07/17 07:02:16;;;;;;;;;;;23.70;57.30;;;;;;5025822;28;87446;-42
2022/07/17 07:04:43;;;;;;;;;;;23.60;57.20;;;;;;5022860;28;88299;-42
2022/07/17 07:07:09;;;;;;;;;;;23.70;57.20;;;;;;5022680;28;87133;-42
2022/07/17 07:09:34;;;;;;;;;;;23.70;57.30;;;;;;5022969;28;87395;-42
2022/07/17 07:12:00;;;;;;;;;;;23.70;56.90;;;;;;5022577;28;87959;-43
2022/07/17 07:14:25;;;;;;;;;;;23.60;56.80;;;;;;5022824;28;87092;-43
2022/07/17 07:16:51;;;;;;;;;;;23.70;57.20;;;;;;5023165;28;88816;-43
2022/07/17 07:19:16;;;;;;;;;;;23.70;56.80;;;;;;5022405;28;88080;-42
2022/07/17 07:21:42;;;;;;;;;;;23.60;56.80;;;;;;5025764;28;87001;-42
2022/07/17 07:24:07;;;;;;;;;;;23.70;57.10;;;;;;5022083;28;89161;-42
2022/07/17 07:26:33;;;;;;;;;;;23.70;56.80;;;;;;5022677;28;87009;-42
2022/07/17 07:28:58;;;;;;;;;;;23.60;57.10;;;;;;5022505;28;87234;-42
2022/07/17 07:31:24;;;;;;;;;;;23.70;57.00;;;;;;5022348;28;88057;-42
2022/07/17 07:33:49;;;;;;;;;;;23.70;57.10;;;;;;5022498;28;86994;-42
2022/07/17 07:36:15;;;;;;;;;;;23.70;57.20;;;;;;5022544;28;86897;-42
2022/07/17 07:38:40;;;;;;;;;;;23.60;57.10;;;;;;5022073;28;87997;-42
2022/07/17 07:41:06;;;;;;;;;;;23.70;57.20;;;;;;5022907;28;86401;-41
2022/07/17 07:43:31;;;;;;;;;;;23.70;57.30;;;;;;5025021;28;87005;-43
2022/07/17 07:45:57;;;;;;;;;;;23.60;57.10;;;;;;5021447;28;87172;-42
2022/07/17 07:48:23;;;;;;;;;;;23.70;57.10;;;;;;5021689;28;88050;-42
2022/07/17 07:50:49;;;;;;;;;;;23.70;57.30;;;;;;5022016;28;88098;-43
2022/07/17 07:53:15;;;;;;;;;;;23.70;57.20;;;;;;5022095;28;87114;-43
2022/07/17 07:55:41;;;;;;;;;;;23.70;57.20;;;;;;5021798;28;87312;-42
2022/07/17 07:58:07;;;;;;;;;;;23.70;57.30;;;;;;5021287;28;88153;-42
2022/07/17 08:00:33;;;;;;;;;;;23.70;57.10;;;;;;5022612;28;87238;-42
2022/07/17 08:02:59;;;;;;;;;;;23.70;57.20;;;;;;5022140;28;87831;-42
2022/07/17 08:05:25;;;;;;;;;;;23.70;57.20;;;;;;5025273;28;87222;-42
2022/07/17 08:07:50;;;;;;;;;;;23.70;57.20;;;;;;5022246;28;87603;-43
2022/07/17 08:10:16;;;;;;;;;;;23.70;57.00;;;;;;5021647;28;88294;-42
2022/07/17 08:12:41;;;;;;;;;;;23.70;57.10;;;;;;5021422;28;88135;-43
2022/07/17 08:15:07;;;;;;;;;;;23.70;57.10;;;;;;5022130;28;88378;-42
2022/07/17 08:17:32;;;;;;;;;;;23.70;57.60;;;;;;5021552;28;89762;-42
2022/07/17 08:19:58;;;;;;;;;;;23.70;57.00;;;;;;5022339;28;87225;-42
2022/07/17 08:22:23;;;;;;;;;;;23.70;57.20;;;;;;5022092;28;87068;-42
2022/07/17 08:24:49;;;;;;;;;;;23.70;57.70;;;;;;5021474;28;87906;-43
2022/07/17 08:27:14;;;;;;;;;;;23.70;57.00;;;;;;5024846;28;87194;-43
2022/07/17 08:29:40;;;;;;;;;;;23.70;57.10;;;;;;5022062;28;87524;-42
2022/07/17 08:32:05;;;;;;;;;;;23.70;57.00;;;;;;5022017;28;87124;-43
2022/07/17 08:34:31;;;;;;;;;;;23.80;57.00;;;;;;5021852;28;87455;-43
2022/07/17 08:36:56;;;;;;;;;;;23.70;57.00;;;;;;5020770;28;89116;-43
2022/07/17 08:39:22;;;;;;;;;;;23.70;56.90;;;;;;5021923;28;87047;-42
2022/07/17 08:41:47;;;;;;;;;;;23.80;57.10;;;;;;5021661;28;87394;-42
2022/07/17 08:44:13;;;;;;;;;;;23.70;57.00;;;;;;5021114;28;88077;-42
2022/07/17 08:46:39;;;;;;;;;;;23.70;56.90;;;;;;5021228;28;87161;-42
2022/07/17 08:49:05;;;;;;;;;;;23.80;57.00;;;;;;5024218;28;87395;-41
2022/07/17 08:51:31;;;;;;;;;;;23.80;57.00;;;;;;5021566;28;87099;-42
2022/07/17 08:53:57;;;;;;;;;;;23.80;57.00;;;;;;5021960;28;87489;-42
2022/07/17 08:56:23;;;;;;;;;;;23.80;56.90;;;;;;5020930;28;88516;-42
2022/07/17 08:58:51;;;;;;;;;;;23.80;56.90;;;;;;5021349;28;86976;-42
2022/07/17 09:01:17;;;;;;;;;;;23.80;56.80;;;;;;5020735;28;88040;-42
2022/07/17 09:03:52;;;;;;;;;;;23.80;56.80;;;;;;5021176;28;87300;-42
2022/07/17 09:06:18;;;;;;;;;;;23.80;56.70;;;;;;5021420;28;87013;-42
2022/07/17 09:08:44;;;;;;;;;;;23.80;56.60;;;;;;5026525;28;87540;-43
2022/07/17 09:11:10;;;;;;;;;;;23.80;56.60;;;;;;5024537;28;87094;-43
2022/07/17 09:13:36;;;;;;;;;;;23.80;56.70;;;;;;5024748;28;87873;-42
2022/07/17 09:16:10;;;;;;;;;;;23.80;56.70;;;;;;5022927;28;89845;-43
2022/07/17 09:18:45;;;;;;;;;;;23.90;56.80;;;;;;5025208;28;86966;-42
2022/07/17 09:21:18;;;;;;;;;;;23.90;56.70;;;;;;5024125;28;90071;-43
2022/07/17 09:23:44;;;;;;;;;;;23.90;56.70;;;;;;5023868;28;89302;-42
2022/07/17 09:26:09;;;;;;;;;;;23.90;56.80;;;;;;5023962;28;88022;-42
2022/07/17 09:28:44;;;;;;;;;;;23.90;56.80;;;;;;5024639;28;88363;-42
2022/07/17 09:31:09;;;;;;;;;;;23.90;56.70;;;;;;5027125;28;88189;-41
2022/07/17 09:33:35;;;;;;;;;;;23.90;56.70;;;;;;5024505;28;86978;-43
2022/07/17 09:36:08;;;;;;;;;;;23.90;56.70;;;;;;5023776;28;88027;-42
2022/07/17 09:38:35;;;;;;;;;;;23.90;56.70;;;;;;5024347;28;87060;-42
2022/07/17 09:41:11;;;;;;;;;;;23.90;56.80;;;;;;5024034;28;87450;-42
2022/07/17 09:43:42;;;;;;;;;;;23.90;56.70;;;;;;5024808;28;87327;-43
2022/07/17 09:46:08;;;;;;;;;;;23.90;56.70;;;;;;5023484;28;87152;-42
2022/07/17 09:48:35;;;;;;;;;;;24.00;56.60;;;;;;5024254;28;87282;-43
2022/07/17 09:51:02;;;;;;;;;;;24.00;56.70;;;;;;5022832;28;90301;-42
2022/07/17 09:53:28;;;;;;;;;;;24.00;56.70;;;;;;5027334;28;87129;-41
2022/07/17 09:55:56;;;;;;;;;;;24.00;56.50;;;;;;5024080;28;88228;-42
2022/07/17 09:58:22;;;;;;;;;;;24.00;56.70;;;;;;5024153;28;87123;-42
2022/07/17 10:00:48;;;;;;;;;;;24.00;56.50;;;;;;5024272;28;87089;-43
2022/07/17 10:03:17;;;;;;;;;;;24.00;56.50;;;;;;5023942;28;87992;-42
2022/07/17 10:05:42;;;;;;;;;;;24.00;56.30;;;;;;5022877;28;87181;-42
2022/07/17 10:08:08;;;;;;;;;;;24.00;56.50;;;;;;5024733;28;88066;-42
2022/07/17 10:10:33;;;;;;;;;;;24.10;56.60;;;;;;5023850;28;88051;-41
2022/07/17 10:12:59;;;;;;;;;;;24.10;56.50;;;;;;5024196;28;87561;-42
2022/07/17 10:15:26;;;;;;;;;;;24.10;56.60;;;;;;5026123;28;87894;-43
2022/07/17 10:18:02;;;;;;;;;;;24.10;56.60;;;;;;5023801;28;87106;-43
2022/07/17 10:20:27;;;;;;;;;;;24.10;56.30;;;;;;5023359;28;87385;-43
2022/07/17 10:22:53;;;;;;;;;;;24.10;56.10;;;;;;5023645;28;88477;-42
2022/07/17 10:25:18;;;;;;;;;;;24.10;55.90;;;;;;5023557;28;87139;-42
2022/07/17 10:27:48;;;;;;;;;;;24.20;56.20;;;;;;5024174;28;88028;-42
2022/07/17 10:30:19;;;;;;;;;;;24.20;56.20;;;;;;5023652;28;88143;-42
2022/07/17 10:32:50;;;;;;;;;;;24.20;56.30;;;;;;5024395;28;86221;-43
2022/07/17 10:35:16;;;;;;;;;;;24.20;56.40;;;;;;5024005;28;87107;-42
2022/07/17 10:37:41;;;;;;;;;;;24.20;56.20;;;;;;5026631;28;88072;-42
2022/07/17 10:40:09;;;;;;;;;;;24.30;56.20;;;;;;5022716;28;88756;-42
2022/07/17 10:42:53;;;;;;;;;;;24.20;56.10;;;;;;5023413;28;88201;-43
2022/07/17 10:45:19;;;;;;;;;;;24.30;56.10;;;;;;5022550;28;87926;-42
2022/07/17 10:47:44;;;;;;;;;;;24.30;55.90;;;;;;5023781;28;87494;-43
2022/07/17 10:50:11;;;;;;;;;;;24.30;55.90;;;;;;5022264;28;88156;-44
2022/07/17 10:52:36;;;;;;;;;;;24.30;55.40;;;;;;5023255;28;87159;-45
2022/07/17 10:55:04;;;;;;;;;;;24.40;55.00;;;;;;5023585;28;87549;-45
2022/07/17 10:57:30;;;;;;;;;;;24.40;55.00;;;;;;5023369;28;88813;-47
2022/07/17 10:59:56;;;;;;;;;;;24.50;55.70;;;;;;5026496;28;87379;-43
2022/07/17 11:02:31;;;;;;;;;;;24.50;52.60;;;;;;5022834;28;88243;-45
2022/07/17 11:05:06;;;;;;;;;;;24.50;52.60;;;;;;5022834;28;88094;-43
2022/07/17 11:07:32;;;;;;;;;;;24.50;52.20;;;;;;5023064;28;89894;-45
2022/07/17 11:09:57;;;;;;;;;;;24.60;53.40;;;;;;5022688;28;88458;-44
2022/07/17 11:12:32;;;;;;;;;;;24.60;52.00;;;;;;5023212;28;87029;-50
2022/07/17 11:15:02;;;;;;;;;;;24.60;52.40;;;;;;5023088;28;86910;-50
2022/07/17 11:17:28;;;;;;;;;;;24.70;51.40;;;;;;5022436;28;90771;-45
2022/07/17 11:19:53;;;;;;;;;;;24.70;51.80;;;;;;5026028;28;87124;-48
2022/07/17 11:22:22;;;;;;;;;;;24.80;51.70;;;;;;5023330;28;87302;-47
2022/07/17 11:24:48;;;;;;;;;;;24.70;51.90;;;;;;5023091;28;87527;-54
2022/07/17 11:27:20;;;;;;;;;;;24.80;51.10;;;;;;5022979;28;87298;-48
2022/07/17 11:29:46;;;;;;;;;;;24.80;51.70;;;;;;5021734;28;90591;-44
2022/07/17 11:32:12;;;;;;;;;;;24.90;51.60;;;;;;5021887;28;87131;-40
2022/07/17 11:34:37;;;;;;;;;;;24.90;53.10;;;;;;5022992;28;87362;-42
2022/07/17 11:37:04;;;;;;;;;;;25.00;52.70;;;;;;5022648;28;88115;-42
2022/07/17 11:39:40;;;;;;;;;;;25.00;52.80;;;;;;5022751;28;87112;-42
2022/07/17 11:42:09;;;;;;;;;;;24.90;51.60;;;;;;5025274;28;87381;-42
2022/07/17 11:44:35;;;;;;;;;;;25.00;50.90;;;;;;5022484;28;87005;-42
2022/07/17 11:47:01;;;;;;;;;;;25.00;49.90;;;;;;5022789;28;91865;-46
2022/07/17 11:49:36;;;;;;;;;;;25.00;49.80;;;;;;5022216;28;88050;-48
2022/07/17 11:52:08;;;;;;;;;;;25.00;50.70;;;;;;5022731;28;86975;-45
2022/07/17 11:54:43;;;;;;;;;;;25.00;50.90;;;;;;5021700;28;87934;-49
2022/07/17 11:57:08;;;;;;;;;;;25.10;49.70;;;;;;5022366;28;88149;-45
2022/07/17 11:59:34;;;;;;;;;;;25.10;50.00;;;;;;5022498;28;87135;-43
2022/07/17 12:02:10;;;;;;;;;;;25.10;50.70;;;;;;5022423;28;87358;-41
2022/07/17 12:04:35;;;;;;;;;;;25.20;49.20;;;;;;5024957;28;89372;-45
2022/07/17 12:07:02;;;;;;;;;;;25.20;49.50;;;;;;5022206;28;88848;-46
2022/07/17 12:09:29;;;;;;;;;;;25.20;49.50;;;;;;5022080;28;87994;-42
2022/07/17 12:11:54;;;;;;;;;;;25.20;50.10;;;;;;5022685;28;86315;-43
2022/07/17 12:14:20;;;;;;;;;;;25.20;49.00;;;;;;5022644;28;86857;-45
2022/07/17 12:16:46;;;;;;;;;;;25.20;49.00;;;;;;5022141;28;87035;-45
2022/07/17 12:19:14;;;;;;;;;;;25.20;49.40;;;;;;5021536;28;88099;-41
2022/07/17 12:21:51;;;;;;;;;;;25.30;49.80;;;;;;5022012;28;89777;-42
2022/07/17 12:24:21;;;;;;;;;;;25.30;49.60;;;;;;5021843;28;89250;-43
2022/07/17 12:26:46;;;;;;;;;;;25.30;49.90;;;;;;5025224;28;87082;-42
2022/07/17 12:29:12;;;;;;;;;;;25.40;50.80;;;;;;5021540;28;89531;-44
2022/07/17 12:31:37;;;;;;;;;;;25.40;51.30;;;;;;5022087;28;87125;-46
2022/07/17 12:34:03;;;;;;;;;;;25.40;50.60;;;;;;5021922;28;88166;-44
2022/07/17 12:36:29;;;;;;;;;;;25.40;50.10;;;;;;5022095;28;87154;-47
2022/07/17 12:38:55;;;;;;;;;;;25.40;49.10;;;;;;5022146;28;87119;-46
2022/07/17 12:41:20;;;;;;;;;;;25.50;48.90;;;;;;5021992;28;88726;-54
2022/07/17 12:43:46;;;;;;;;;;;25.50;50.80;;;;;;5023365;28;88985;-60
2022/07/17 12:46:11;;;;;;;;;;;25.60;50.50;;;;;;5025018;28;87035;-53
2022/07/17 12:48:39;;;;;;;;;;;25.60;49.80;;;;;;5028020;28;86989;-50
2022/07/17 12:51:06;;;;;;;;;;;25.60;50.30;;;;;;5025326;28;87070;-48
2022/07/17 12:53:31;;;;;;;;;;;25.60;48.80;;;;;;5025524;28;86996;-44
2022/07/17 12:55:57;;;;;;;;;;;25.60;48.90;;;;;;5024864;28;88700;-46
2022/07/17 12:58:22;;;;;;;;;;;25.60;49.00;;;;;;5025409;28;87108;-54
2022/07/17 13:00:48;;;;;;;;;;;25.70;49.30;;;;;;5025985;28;87568;-50
2022/07/17 13:03:13;;;;;;;;;;;25.80;48.70;;;;;;5024746;28;88103;-45
2022/07/17 13:05:39;;;;;;;;;;;25.80;49.20;;;;;;5025255;28;87187;-45
2022/07/17 13:08:04;;;;;;;;;;;25.80;49.40;;;;;;5024811;28;87945;-42
2022/07/17 13:10:31;;;;;;;;;;;25.80;49.20;;;;;;5027720;28;87894;-46
2022/07/17 13:12:56;;;;;;;;;;;25.80;48.20;;;;;;5024973;28;88632;-45
2022/07/17 13:15:22;;;;;;;;;;;25.90;49.20;;;;;;5024838;28;87379;-48
2022/07/17 13:17:47;;;;;;;;;;;25.90;48.90;;;;;;5024596;28;87035;-53
2022/07/17 13:20:13;;;;;;;;;;;25.90;47.80;;;;;;5025083;28;87336;-48
2022/07/17 13:22:39;;;;;;;;;;;26.00;47.50;;;;;;5024549;28;87220;-47
2022/07/17 13:25:04;;;;;;;;;;;26.00;48.80;;;;;;5025525;28;86423;-43
2022/07/17 13:27:30;;;;;;;;;;;26.00;48.70;;;;;;5025024;28;87019;-50
2022/07/17 13:29:55;;;;;;;;;;;26.00;49.30;;;;;;5027491;28;88042;-49
2022/07/17 13:32:21;;;;;;;;;;;26.00;49.00;;;;;;5024513;28;88282;-43
2022/07/17 13:34:46;;;;;;;;;;;26.10;48.80;;;;;;5024552;28;88365;-47
2022/07/17 13:37:12;;;;;;;;;;;26.10;49.70;;;;;;5024874;28;86849;-46
2022/07/17 13:39:37;;;;;;;;;;;26.20;50.20;;;;;;5024610;28;87515;-53
2022/07/17 13:42:03;;;;;;;;;;;26.20;49.80;;;;;;5023976;28;89159;-53
2022/07/17 13:44:28;;;;;;;;;;;26.30;49.20;;;;;;5024607;28;87138;-44
2022/07/17 13:46:54;;;;;;;;;;;26.30;48.80;;;;;;5024448;28;87377;-45
2022/07/17 13:49:21;;;;;;;;;;;26.30;49.00;;;;;;5024571;28;87429;-45
2022/07/17 13:51:47;;;;;;;;;;;26.20;48.30;;;;;;5026728;28;87041;-47
2022/07/17 13:54:12;;;;;;;;;;;26.30;47.60;;;;;;5022983;28;87924;-41
2022/07/17 13:56:38;;;;;;;;;;;26.30;47.50;;;;;;5023909;28;88451;-43
2022/07/17 13:59:03;;;;;;;;;;;26.30;48.10;;;;;;5024511;28;87930;-47
2022/07/17 14:01:29;;;;;;;;;;;26.30;47.70;;;;;;5023942;28;88016;-45
2022/07/17 14:03:54;;;;;;;;;;;26.30;47.80;;;;;;5024562;28;87545;-46
2022/07/17 14:06:20;;;;;;;;;;;26.30;48.20;;;;;;5024065;28;87006;-44
2022/07/17 14:08:46;;;;;;;;;;;26.30;47.30;;;;;;5023737;28;88171;-46
2022/07/17 14:11:12;;;;;;;;;;;26.30;48.00;;;;;;5024235;28;87120;-46